sensor_id;sensor_type;location;lat;lon;timestamp;P1;durP1;ratioP1;P2;durP2;ratioP2
78931;SDS011;68331;53.362;55.932;2023-07-08T00:00:19;16.98;;;13.98;;
78931;SDS011;68331;53.362;55.932;2023-07-08T00:02:47;19.60;;;14.63;;
78931;SDS011;68331;53.362;55.932;2023-07-08T00:05:15;18.58;;;14.23;;
78931;SDS011;68331;53.362;55.932;2023-07-08T00:07:43;22.83;;;16.20;;
78931;SDS011;68331;53.362;55.932;2023-07-08T00:12:35;21.75;;;16.00;;
78931;SDS011;68331;53.362;55.932;2023-07-08T00:15:01;23.55;;;14.85;;
78931;SDS011;68331;53.362;55.932;2023-07-08T00:17:30;23.95;;;16.25;;
78931;SDS011;68331;53.362;55.932;2023-07-08T00:19:56;22.75;;;16.05;;
78931;SDS011;68331;53.362;55.932;2023-07-08T00:22:22;24.92;;;17.08;;
78931;SDS011;68331;53.362;55.932;2023-07-08T00:24:50;22.05;;;16.20;;
78931;SDS011;68331;53.362;55.932;2023-07-08T00:27:16;20.23;;;16.23;;
78931;SDS011;68331;53.362;55.932;2023-07-08T00:29:43;23.80;;;15.32;;
78931;SDS011;68331;53.362;55.932;2023-07-08T00:32:11;24.88;;;16.13;;
78931;SDS011;68331;53.362;55.932;2023-07-08T00:34:38;21.73;;;15.32;;
78931;SDS011;68331;53.362;55.932;2023-07-08T00:37:04;24.23;;;17.95;;
78931;SDS011;68331;53.362;55.932;2023-07-08T00:39:33;23.20;;;16.63;;
78931;SDS011;68331;53.362;55.932;2023-07-08T00:42:00;27.60;;;17.77;;
78931;SDS011;68331;53.362;55.932;2023-07-08T00:44:27;24.08;;;17.92;;
78931;SDS011;68331;53.362;55.932;2023-07-08T00:51:48;26.08;;;17.67;;
78931;SDS011;68331;53.362;55.932;2023-07-08T00:54:17;23.73;;;18.45;;
78931;SDS011;68331;53.362;55.932;2023-07-08T00:59:21;25.65;;;18.45;;
78931;SDS011;68331;53.362;55.932;2023-07-08T01:01:55;30.92;;;19.55;;
78931;SDS011;68331;53.362;55.932;2023-07-08T01:04:28;29.50;;;17.45;;
78931;SDS011;68331;53.362;55.932;2023-07-08T01:06:57;28.75;;;20.02;;
78931;SDS011;68331;53.362;55.932;2023-07-08T01:09:33;27.73;;;18.50;;
78931;SDS011;68331;53.362;55.932;2023-07-08T01:12:04;26.17;;;17.92;;
78931;SDS011;68331;53.362;55.932;2023-07-08T01:14:34;26.65;;;17.65;;
78931;SDS011;68331;53.362;55.932;2023-07-08T01:17:04;26.55;;;16.15;;
78931;SDS011;68331;53.362;55.932;2023-07-08T01:19:30;23.08;;;15.93;;
78931;SDS011;68331;53.362;55.932;2023-07-08T01:22:00;23.88;;;16.05;;
78931;SDS011;68331;53.362;55.932;2023-07-08T01:24:31;22.25;;;15.50;;
78931;SDS011;68331;53.362;55.932;2023-07-08T01:27:00;24.40;;;16.60;;
78931;SDS011;68331;53.362;55.932;2023-07-08T01:29:28;28.20;;;17.17;;
78931;SDS011;68331;53.362;55.932;2023-07-08T01:31:55;20.73;;;15.85;;
78931;SDS011;68331;53.362;55.932;2023-07-08T01:34:22;21.23;;;15.45;;
78931;SDS011;68331;53.362;55.932;2023-07-08T01:36:50;24.10;;;15.70;;
78931;SDS011;68331;53.362;55.932;2023-07-08T01:39:19;20.85;;;14.40;;
78931;SDS011;68331;53.362;55.932;2023-07-08T01:41:47;22.95;;;16.02;;
78931;SDS011;68331;53.362;55.932;2023-07-08T01:44:21;24.55;;;16.70;;
78931;SDS011;68331;53.362;55.932;2023-07-08T01:46:55;19.80;;;15.13;;
78931;SDS011;68331;53.362;55.932;2023-07-08T01:49:25;21.88;;;15.20;;
78931;SDS011;68331;53.362;55.932;2023-07-08T01:51:52;21.42;;;15.32;;
78931;SDS011;68331;53.362;55.932;2023-07-08T01:54:18;20.75;;;15.23;;
78931;SDS011;68331;53.362;55.932;2023-07-08T01:56:44;21.45;;;15.00;;
78931;SDS011;68331;53.362;55.932;2023-07-08T01:59:11;24.27;;;16.33;;
78931;SDS011;68331;53.362;55.932;2023-07-08T02:01:36;21.33;;;15.20;;
78931;SDS011;68331;53.362;55.932;2023-07-08T02:04:03;23.63;;;15.73;;
78931;SDS011;68331;53.362;55.932;2023-07-08T02:06:29;23.73;;;16.45;;
78931;SDS011;68331;53.362;55.932;2023-07-08T02:09:06;19.98;;;14.73;;
78931;SDS011;68331;53.362;55.932;2023-07-08T02:11:31;23.70;;;16.08;;
78931;SDS011;68331;53.362;55.932;2023-07-08T02:13:57;21.50;;;16.75;;
78931;SDS011;68331;53.362;55.932;2023-07-08T02:16:26;24.67;;;17.90;;
78931;SDS011;68331;53.362;55.932;2023-07-08T02:18:52;26.33;;;18.67;;
78931;SDS011;68331;53.362;55.932;2023-07-08T02:21:18;24.17;;;16.55;;
78931;SDS011;68331;53.362;55.932;2023-07-08T02:23:49;28.10;;;19.25;;
78931;SDS011;68331;53.362;55.932;2023-07-08T02:26:16;24.13;;;18.60;;
78931;SDS011;68331;53.362;55.932;2023-07-08T02:28:42;24.55;;;17.17;;
78931;SDS011;68331;53.362;55.932;2023-07-08T02:31:08;28.75;;;20.27;;
78931;SDS011;68331;53.362;55.932;2023-07-08T02:33:34;32.58;;;22.45;;
78931;SDS011;68331;53.362;55.932;2023-07-08T02:36:00;30.02;;;21.25;;
78931;SDS011;68331;53.362;55.932;2023-07-08T02:38:26;28.85;;;20.50;;
78931;SDS011;68331;53.362;55.932;2023-07-08T02:40:52;37.97;;;25.73;;
78931;SDS011;68331;53.362;55.932;2023-07-08T02:43:18;33.70;;;24.42;;
78931;SDS011;68331;53.362;55.932;2023-07-08T02:45:44;27.38;;;21.58;;
78931;SDS011;68331;53.362;55.932;2023-07-08T02:48:10;33.00;;;24.60;;
78931;SDS011;68331;53.362;55.932;2023-07-08T02:50:36;38.15;;;24.13;;
78931;SDS011;68331;53.362;55.932;2023-07-08T02:53:02;33.22;;;22.88;;
78931;SDS011;68331;53.362;55.932;2023-07-08T02:55:28;33.58;;;23.40;;
78931;SDS011;68331;53.362;55.932;2023-07-08T02:57:54;33.33;;;23.58;;
78931;SDS011;68331;53.362;55.932;2023-07-08T03:00:20;36.20;;;24.17;;
78931;SDS011;68331;53.362;55.932;2023-07-08T03:02:46;29.95;;;22.38;;
78931;SDS011;68331;53.362;55.932;2023-07-08T03:05:12;33.20;;;23.42;;
78931;SDS011;68331;53.362;55.932;2023-07-08T03:07:38;31.33;;;22.92;;
78931;SDS011;68331;53.362;55.932;2023-07-08T03:10:04;31.33;;;22.02;;
78931;SDS011;68331;53.362;55.932;2023-07-08T03:12:31;30.27;;;21.88;;
78931;SDS011;68331;53.362;55.932;2023-07-08T03:14:58;30.77;;;22.05;;
78931;SDS011;68331;53.362;55.932;2023-07-08T03:17:24;28.65;;;21.42;;
78931;SDS011;68331;53.362;55.932;2023-07-08T03:19:50;28.58;;;21.23;;
78931;SDS011;68331;53.362;55.932;2023-07-08T03:22:16;28.83;;;21.15;;
78931;SDS011;68331;53.362;55.932;2023-07-08T03:24:42;30.30;;;21.80;;
78931;SDS011;68331;53.362;55.932;2023-07-08T03:27:14;27.25;;;19.85;;
78931;SDS011;68331;53.362;55.932;2023-07-08T03:29:42;26.98;;;20.92;;
78931;SDS011;68331;53.362;55.932;2023-07-08T03:32:09;32.60;;;21.73;;
78931;SDS011;68331;53.362;55.932;2023-07-08T03:34:37;26.10;;;20.73;;
78931;SDS011;68331;53.362;55.932;2023-07-08T03:37:03;24.45;;;18.98;;
78931;SDS011;68331;53.362;55.932;2023-07-08T03:39:30;28.60;;;21.80;;
78931;SDS011;68331;53.362;55.932;2023-07-08T03:41:57;26.70;;;19.95;;
78931;SDS011;68331;53.362;55.932;2023-07-08T03:44:23;34.10;;;20.88;;
78931;SDS011;68331;53.362;55.932;2023-07-08T03:46:49;29.83;;;22.35;;
78931;SDS011;68331;53.362;55.932;2023-07-08T03:49:21;25.38;;;19.02;;
78931;SDS011;68331;53.362;55.932;2023-07-08T03:51:51;24.45;;;18.10;;
78931;SDS011;68331;53.362;55.932;2023-07-08T03:54:22;28.20;;;17.60;;
78931;SDS011;68331;53.362;55.932;2023-07-08T03:56:51;27.63;;;17.63;;
78931;SDS011;68331;53.362;55.932;2023-07-08T03:59:18;27.55;;;17.55;;
78931;SDS011;68331;53.362;55.932;2023-07-08T04:01:45;21.08;;;14.57;;
78931;SDS011;68331;53.362;55.932;2023-07-08T04:04:13;23.95;;;13.57;;
78931;SDS011;68331;53.362;55.932;2023-07-08T04:06:42;21.38;;;13.32;;
78931;SDS011;68331;53.362;55.932;2023-07-08T04:09:09;120.57;;;21.60;;
78931;SDS011;68331;53.362;55.932;2023-07-08T04:11:35;24.20;;;14.38;;
78931;SDS011;68331;53.362;55.932;2023-07-08T04:14:01;21.25;;;13.38;;
78931;SDS011;68331;53.362;55.932;2023-07-08T04:16:33;27.73;;;14.40;;
78931;SDS011;68331;53.362;55.932;2023-07-08T04:19:12;259.25;;;31.95;;
78931;SDS011;68331;53.362;55.932;2023-07-08T04:21:40;39.30;;;14.65;;
78931;SDS011;68331;53.362;55.932;2023-07-08T04:24:09;25.75;;;12.98;;
78931;SDS011;68331;53.362;55.932;2023-07-08T04:26:36;18.65;;;12.90;;
78931;SDS011;68331;53.362;55.932;2023-07-08T04:29:07;39.85;;;13.68;;
78931;SDS011;68331;53.362;55.932;2023-07-08T04:31:36;21.42;;;12.05;;
78931;SDS011;68331;53.362;55.932;2023-07-08T04:34:02;39.05;;;13.52;;
78931;SDS011;68331;53.362;55.932;2023-07-08T04:36:28;20.92;;;11.95;;
78931;SDS011;68331;53.362;55.932;2023-07-08T04:38:55;14.30;;;10.50;;
78931;SDS011;68331;53.362;55.932;2023-07-08T04:41:23;19.25;;;11.00;;
78931;SDS011;68331;53.362;55.932;2023-07-08T04:43:51;18.88;;;10.50;;
78931;SDS011;68331;53.362;55.932;2023-07-08T04:46:21;16.08;;;10.27;;
78931;SDS011;68331;53.362;55.932;2023-07-08T04:48:56;18.35;;;10.73;;
78931;SDS011;68331;53.362;55.932;2023-07-08T04:51:25;17.13;;;11.00;;
78931;SDS011;68331;53.362;55.932;2023-07-08T04:53:51;13.82;;;9.45;;
78931;SDS011;68331;53.362;55.932;2023-07-08T04:56:17;20.05;;;10.38;;
78931;SDS011;68331;53.362;55.932;2023-07-08T04:58:44;15.77;;;9.80;;
78931;SDS011;68331;53.362;55.932;2023-07-08T05:01:10;13.90;;;9.00;;
78931;SDS011;68331;53.362;55.932;2023-07-08T05:03:36;16.70;;;9.93;;
78931;SDS011;68331;53.362;55.932;2023-07-08T05:06:02;15.57;;;10.10;;
78931;SDS011;68331;53.362;55.932;2023-07-08T05:08:28;18.48;;;10.15;;
78931;SDS011;68331;53.362;55.932;2023-07-08T05:10:55;10.68;;;9.43;;
78931;SDS011;68331;53.362;55.932;2023-07-08T05:13:21;18.67;;;9.40;;
78931;SDS011;68331;53.362;55.932;2023-07-08T05:15:48;14.43;;;9.57;;
78931;SDS011;68331;53.362;55.932;2023-07-08T05:18:14;14.02;;;9.15;;
78931;SDS011;68331;53.362;55.932;2023-07-08T05:20:40;13.05;;;8.40;;
78931;SDS011;68331;53.362;55.932;2023-07-08T05:23:07;26.42;;;15.77;;
78931;SDS011;68331;53.362;55.932;2023-07-08T05:25:33;15.40;;;9.18;;
78931;SDS011;68331;53.362;55.932;2023-07-08T05:27:59;14.30;;;8.55;;
78931;SDS011;68331;53.362;55.932;2023-07-08T05:30:25;9.95;;;7.68;;
78931;SDS011;68331;53.362;55.932;2023-07-08T05:32:52;19.73;;;9.38;;
78931;SDS011;68331;53.362;55.932;2023-07-08T05:35:19;18.25;;;8.95;;
78931;SDS011;68331;53.362;55.932;2023-07-08T05:37:45;12.52;;;8.23;;
78931;SDS011;68331;53.362;55.932;2023-07-08T05:40:12;17.73;;;8.32;;
78931;SDS011;68331;53.362;55.932;2023-07-08T05:45:04;13.05;;;8.63;;
78931;SDS011;68331;53.362;55.932;2023-07-08T05:47:32;15.65;;;8.25;;
78931;SDS011;68331;53.362;55.932;2023-07-08T05:52:24;14.43;;;7.60;;
78931;SDS011;68331;53.362;55.932;2023-07-08T05:54:50;10.50;;;7.75;;
78931;SDS011;68331;53.362;55.932;2023-07-08T05:57:16;15.20;;;8.32;;
78931;SDS011;68331;53.362;55.932;2023-07-08T05:59:42;10.13;;;8.35;;
78931;SDS011;68331;53.362;55.932;2023-07-08T06:02:09;9.50;;;7.57;;
78931;SDS011;68331;53.362;55.932;2023-07-08T06:04:36;7.93;;;6.78;;
78931;SDS011;68331;53.362;55.932;2023-07-08T06:07:02;9.80;;;7.28;;
78931;SDS011;68331;53.362;55.932;2023-07-08T06:09:28;10.35;;;6.85;;
78931;SDS011;68331;53.362;55.932;2023-07-08T06:14:20;11.82;;;8.32;;
78931;SDS011;68331;53.362;55.932;2023-07-08T06:19:11;7.20;;;6.50;;
78931;SDS011;68331;53.362;55.932;2023-07-08T06:21:40;10.32;;;7.70;;
78931;SDS011;68331;53.362;55.932;2023-07-08T06:24:07;10.73;;;8.15;;
78931;SDS011;68331;53.362;55.932;2023-07-08T06:26:34;20.00;;;8.18;;
78931;SDS011;68331;53.362;55.932;2023-07-08T06:29:00;11.57;;;7.78;;
78931;SDS011;68331;53.362;55.932;2023-07-08T06:31:27;9.13;;;8.23;;
78931;SDS011;68331;53.362;55.932;2023-07-08T06:33:54;11.85;;;7.57;;
78931;SDS011;68331;53.362;55.932;2023-07-08T06:36:20;10.63;;;7.70;;
78931;SDS011;68331;53.362;55.932;2023-07-08T06:38:48;11.25;;;7.45;;
78931;SDS011;68331;53.362;55.932;2023-07-08T06:41:14;10.65;;;6.88;;
78931;SDS011;68331;53.362;55.932;2023-07-08T06:43:40;26.38;;;8.07;;
78931;SDS011;68331;53.362;55.932;2023-07-08T06:46:16;8.15;;;6.63;;
78931;SDS011;68331;53.362;55.932;2023-07-08T06:48:44;6.97;;;6.28;;
78931;SDS011;68331;53.362;55.932;2023-07-08T06:51:10;8.88;;;5.90;;
78931;SDS011;68331;53.362;55.932;2023-07-08T06:53:36;7.85;;;7.05;;
78931;SDS011;68331;53.362;55.932;2023-07-08T06:56:02;8.70;;;6.70;;
78931;SDS011;68331;53.362;55.932;2023-07-08T06:58:28;19.33;;;13.43;;
78931;SDS011;68331;53.362;55.932;2023-07-08T07:00:54;13.93;;;8.75;;
78931;SDS011;68331;53.362;55.932;2023-07-08T07:03:20;11.73;;;6.88;;
78931;SDS011;68331;53.362;55.932;2023-07-08T07:05:46;10.48;;;6.75;;
78931;SDS011;68331;53.362;55.932;2023-07-08T07:08:12;14.05;;;8.02;;
78931;SDS011;68331;53.362;55.932;2023-07-08T07:10:39;10.50;;;7.70;;
78931;SDS011;68331;53.362;55.932;2023-07-08T07:13:06;11.43;;;8.65;;
78931;SDS011;68331;53.362;55.932;2023-07-08T07:17:58;12.35;;;8.93;;
78931;SDS011;68331;53.362;55.932;2023-07-08T07:22:51;14.55;;;9.95;;
78931;SDS011;68331;53.362;55.932;2023-07-08T07:25:17;15.23;;;10.82;;
78931;SDS011;68331;53.362;55.932;2023-07-08T07:27:44;17.35;;;10.85;;
78931;SDS011;68331;53.362;55.932;2023-07-08T07:30:10;10.98;;;9.57;;
78931;SDS011;68331;53.362;55.932;2023-07-08T07:32:44;13.07;;;9.75;;
78931;SDS011;68331;53.362;55.932;2023-07-08T07:35:13;12.52;;;9.25;;
78931;SDS011;68331;53.362;55.932;2023-07-08T07:37:41;13.82;;;10.18;;
78931;SDS011;68331;53.362;55.932;2023-07-08T07:40:09;15.73;;;10.40;;
78931;SDS011;68331;53.362;55.932;2023-07-08T07:42:39;12.43;;;10.30;;
78931;SDS011;68331;53.362;55.932;2023-07-08T07:45:06;10.95;;;9.07;;
78931;SDS011;68331;53.362;55.932;2023-07-08T07:47:33;11.25;;;8.73;;
78931;SDS011;68331;53.362;55.932;2023-07-08T07:50:00;12.85;;;9.30;;
78931;SDS011;68331;53.362;55.932;2023-07-08T07:52:28;22.35;;;8.82;;
78931;SDS011;68331;53.362;55.932;2023-07-08T07:54:54;15.82;;;10.20;;
78931;SDS011;68331;53.362;55.932;2023-07-08T07:57:21;13.73;;;9.80;;
78931;SDS011;68331;53.362;55.932;2023-07-08T07:59:48;14.00;;;9.48;;
78931;SDS011;68331;53.362;55.932;2023-07-08T08:02:15;13.32;;;8.35;;
78931;SDS011;68331;53.362;55.932;2023-07-08T08:04:41;11.98;;;8.13;;
78931;SDS011;68331;53.362;55.932;2023-07-08T08:07:07;10.45;;;8.02;;
78931;SDS011;68331;53.362;55.932;2023-07-08T08:09:35;12.07;;;8.93;;
78931;SDS011;68331;53.362;55.932;2023-07-08T08:12:03;10.35;;;7.50;;
78931;SDS011;68331;53.362;55.932;2023-07-08T08:14:30;16.75;;;8.57;;
78931;SDS011;68331;53.362;55.932;2023-07-08T08:19:22;11.05;;;8.25;;
78931;SDS011;68331;53.362;55.932;2023-07-08T08:21:48;9.40;;;8.20;;
78931;SDS011;68331;53.362;55.932;2023-07-08T08:24:14;13.80;;;8.60;;
78931;SDS011;68331;53.362;55.932;2023-07-08T08:26:40;11.77;;;7.43;;
78931;SDS011;68331;53.362;55.932;2023-07-08T08:29:06;14.68;;;8.20;;
78931;SDS011;68331;53.362;55.932;2023-07-08T08:33:58;12.43;;;8.07;;
78931;SDS011;68331;53.362;55.932;2023-07-08T08:38:50;9.65;;;8.05;;
78931;SDS011;68331;53.362;55.932;2023-07-08T08:43:44;9.73;;;7.60;;
78931;SDS011;68331;53.362;55.932;2023-07-08T08:48:51;11.95;;;8.20;;
78931;SDS011;68331;53.362;55.932;2023-07-08T08:51:28;12.80;;;9.52;;
78931;SDS011;68331;53.362;55.932;2023-07-08T08:53:56;13.30;;;9.88;;
78931;SDS011;68331;53.362;55.932;2023-07-08T08:56:26;11.02;;;9.50;;
78931;SDS011;68331;53.362;55.932;2023-07-08T08:58:58;13.05;;;9.88;;
78931;SDS011;68331;53.362;55.932;2023-07-08T09:01:50;12.25;;;8.65;;
78931;SDS011;68331;53.362;55.932;2023-07-08T09:04:20;14.50;;;9.55;;
78931;SDS011;68331;53.362;55.932;2023-07-08T09:06:51;17.23;;;9.88;;
78931;SDS011;68331;53.362;55.932;2023-07-08T09:09:29;14.23;;;9.80;;
78931;SDS011;68331;53.362;55.932;2023-07-08T09:12:04;12.15;;;9.07;;
78931;SDS011;68331;53.362;55.932;2023-07-08T09:14:36;12.70;;;8.77;;
78931;SDS011;68331;53.362;55.932;2023-07-08T09:22:27;10.77;;;9.20;;
78931;SDS011;68331;53.362;55.932;2023-07-08T09:27:36;12.40;;;9.13;;
78931;SDS011;68331;53.362;55.932;2023-07-08T09:30:03;11.13;;;6.78;;
78931;SDS011;68331;53.362;55.932;2023-07-08T09:32:31;8.38;;;6.88;;
78931;SDS011;68331;53.362;55.932;2023-07-08T09:35:04;9.73;;;6.63;;
78931;SDS011;68331;53.362;55.932;2023-07-08T09:37:33;14.25;;;6.80;;
78931;SDS011;68331;53.362;55.932;2023-07-08T09:42:46;8.43;;;6.18;;
78931;SDS011;68331;53.362;55.932;2023-07-08T09:45:20;9.05;;;6.55;;
78931;SDS011;68331;53.362;55.932;2023-07-08T09:47:51;7.80;;;6.35;;
78931;SDS011;68331;53.362;55.932;2023-07-08T09:50:25;8.20;;;6.78;;
78931;SDS011;68331;53.362;55.932;2023-07-08T09:52:57;7.35;;;6.43;;
78931;SDS011;68331;53.362;55.932;2023-07-08T09:55:27;9.75;;;6.38;;
78931;SDS011;68331;53.362;55.932;2023-07-08T09:57:54;8.68;;;6.53;;
78931;SDS011;68331;53.362;55.932;2023-07-08T10:00:33;7.28;;;5.78;;
78931;SDS011;68331;53.362;55.932;2023-07-08T10:03:19;8.18;;;6.15;;
78931;SDS011;68331;53.362;55.932;2023-07-08T10:05:48;8.40;;;6.35;;
78931;SDS011;68331;53.362;55.932;2023-07-08T10:08:17;9.50;;;5.80;;
78931;SDS011;68331;53.362;55.932;2023-07-08T10:10:46;8.63;;;6.10;;
78931;SDS011;68331;53.362;55.932;2023-07-08T10:13:28;8.23;;;6.45;;
78931;SDS011;68331;53.362;55.932;2023-07-08T10:16:13;8.85;;;5.72;;
78931;SDS011;68331;53.362;55.932;2023-07-08T10:18:42;8.02;;;6.20;;
78931;SDS011;68331;53.362;55.932;2023-07-08T10:21:13;8.70;;;5.60;;
78931;SDS011;68331;53.362;55.932;2023-07-08T10:26:54;9.05;;;7.07;;
78931;SDS011;68331;53.362;55.932;2023-07-08T10:30:01;6.82;;;5.93;;
78931;SDS011;68331;53.362;55.932;2023-07-08T10:37:51;8.57;;;6.90;;
78931;SDS011;68331;53.362;55.932;2023-07-08T10:43:56;9.38;;;6.28;;
78931;SDS011;68331;53.362;55.932;2023-07-08T10:46:34;7.03;;;5.60;;
78931;SDS011;68331;53.362;55.932;2023-07-08T10:55:13;8.25;;;5.63;;
78931;SDS011;68331;53.362;55.932;2023-07-08T11:00:37;6.85;;;6.10;;
78931;SDS011;68331;53.362;55.932;2023-07-08T11:06:18;8.20;;;6.25;;
78931;SDS011;68331;53.362;55.932;2023-07-08T11:08:50;9.05;;;5.90;;
78931;SDS011;68331;53.362;55.932;2023-07-08T11:11:38;7.43;;;5.90;;
78931;SDS011;68331;53.362;55.932;2023-07-08T11:14:12;6.43;;;5.63;;
78931;SDS011;68331;53.362;55.932;2023-07-08T11:16:45;8.95;;;5.78;;
78931;SDS011;68331;53.362;55.932;2023-07-08T11:19:21;6.93;;;5.75;;
78931;SDS011;68331;53.362;55.932;2023-07-08T11:21:53;7.45;;;5.80;;
78931;SDS011;68331;53.362;55.932;2023-07-08T11:24:38;8.55;;;5.55;;
78931;SDS011;68331;53.362;55.932;2023-07-08T11:27:14;8.48;;;6.22;;
78931;SDS011;68331;53.362;55.932;2023-07-08T11:29:46;8.38;;;5.90;;
78931;SDS011;68331;53.362;55.932;2023-07-08T11:32:16;7.03;;;6.18;;
78931;SDS011;68331;53.362;55.932;2023-07-08T11:34:50;6.90;;;5.72;;
78931;SDS011;68331;53.362;55.932;2023-07-08T11:37:18;13.02;;;6.63;;
78931;SDS011;68331;53.362;55.932;2023-07-08T11:42:43;8.15;;;5.97;;
78931;SDS011;68331;53.362;55.932;2023-07-08T11:47:47;6.88;;;6.20;;
78931;SDS011;68331;53.362;55.932;2023-07-08T11:50:19;9.02;;;5.85;;
78931;SDS011;68331;53.362;55.932;2023-07-08T11:52:52;7.05;;;5.72;;
78931;SDS011;68331;53.362;55.932;2023-07-08T11:55:27;7.82;;;6.70;;
78931;SDS011;68331;53.362;55.932;2023-07-08T11:58:05;6.60;;;6.00;;
78931;SDS011;68331;53.362;55.932;2023-07-08T12:00:33;11.68;;;6.22;;
78931;SDS011;68331;53.362;55.932;2023-07-08T12:03:04;7.40;;;6.20;;
78931;SDS011;68331;53.362;55.932;2023-07-08T12:05:47;7.85;;;5.78;;
78931;SDS011;68331;53.362;55.932;2023-07-08T12:08:17;11.10;;;6.10;;
78931;SDS011;68331;53.362;55.932;2023-07-08T12:10:49;7.93;;;6.30;;
78931;SDS011;68331;53.362;55.932;2023-07-08T12:13:18;6.72;;;5.75;;
78931;SDS011;68331;53.362;55.932;2023-07-08T12:15:48;7.72;;;5.68;;
78931;SDS011;68331;53.362;55.932;2023-07-08T12:18:21;9.57;;;6.18;;
78931;SDS011;68331;53.362;55.932;2023-07-08T12:20:56;9.40;;;6.68;;
78931;SDS011;68331;53.362;55.932;2023-07-08T12:23:24;8.07;;;5.85;;
78931;SDS011;68331;53.362;55.932;2023-07-08T12:25:52;9.35;;;6.35;;
78931;SDS011;68331;53.362;55.932;2023-07-08T12:28:19;8.43;;;6.05;;
78931;SDS011;68331;53.362;55.932;2023-07-08T12:30:47;8.00;;;5.38;;
78931;SDS011;68331;53.362;55.932;2023-07-08T12:33:16;9.77;;;6.57;;
78931;SDS011;68331;53.362;55.932;2023-07-08T12:35:46;7.00;;;5.85;;
78931;SDS011;68331;53.362;55.932;2023-07-08T12:43:08;7.60;;;5.45;;
78931;SDS011;68331;53.362;55.932;2023-07-08T12:45:36;7.82;;;6.38;;
78931;SDS011;68331;53.362;55.932;2023-07-08T12:48:02;7.70;;;5.93;;
78931;SDS011;68331;53.362;55.932;2023-07-08T12:50:29;8.75;;;5.78;;
78931;SDS011;68331;53.362;55.932;2023-07-08T12:52:55;8.82;;;6.20;;
78931;SDS011;68331;53.362;55.932;2023-07-08T12:55:22;9.55;;;6.47;;
78931;SDS011;68331;53.362;55.932;2023-07-08T12:57:50;7.50;;;5.85;;
78931;SDS011;68331;53.362;55.932;2023-07-08T13:00:23;8.38;;;5.68;;
78931;SDS011;68331;53.362;55.932;2023-07-08T13:02:55;8.43;;;6.70;;
78931;SDS011;68331;53.362;55.932;2023-07-08T13:05:25;8.52;;;6.35;;
78931;SDS011;68331;53.362;55.932;2023-07-08T13:07:52;8.68;;;6.47;;
78931;SDS011;68331;53.362;55.932;2023-07-08T13:10:19;6.75;;;6.00;;
78931;SDS011;68331;53.362;55.932;2023-07-08T13:12:51;10.27;;;6.85;;
78931;SDS011;68331;53.362;55.932;2023-07-08T13:17:51;8.75;;;6.57;;
78931;SDS011;68331;53.362;55.932;2023-07-08T13:20:17;10.00;;;7.00;;
78931;SDS011;68331;53.362;55.932;2023-07-08T13:22:45;10.80;;;6.60;;
78931;SDS011;68331;53.362;55.932;2023-07-08T13:25:17;10.05;;;6.90;;
78931;SDS011;68331;53.362;55.932;2023-07-08T13:28:01;7.50;;;6.53;;
78931;SDS011;68331;53.362;55.932;2023-07-08T13:30:48;6.50;;;5.88;;
78931;SDS011;68331;53.362;55.932;2023-07-08T13:33:19;7.97;;;6.43;;
78931;SDS011;68331;53.362;55.932;2023-07-08T13:35:46;9.90;;;6.15;;
78931;SDS011;68331;53.362;55.932;2023-07-08T13:38:23;8.88;;;6.43;;
78931;SDS011;68331;53.362;55.932;2023-07-08T13:40:54;8.80;;;6.75;;
78931;SDS011;68331;53.362;55.932;2023-07-08T13:43:25;8.20;;;6.68;;
78931;SDS011;68331;53.362;55.932;2023-07-08T13:45:54;10.07;;;6.32;;
78931;SDS011;68331;53.362;55.932;2023-07-08T13:48:24;8.23;;;6.00;;
78931;SDS011;68331;53.362;55.932;2023-07-08T13:51:06;7.63;;;5.90;;
78931;SDS011;68331;53.362;55.932;2023-07-08T13:53:49;8.32;;;6.05;;
78931;SDS011;68331;53.362;55.932;2023-07-08T13:56:23;10.13;;;6.18;;
78931;SDS011;68331;53.362;55.932;2023-07-08T13:59:00;8.32;;;6.15;;
78931;SDS011;68331;53.362;55.932;2023-07-08T14:01:30;10.27;;;6.03;;
78931;SDS011;68331;53.362;55.932;2023-07-08T14:03:58;7.60;;;6.05;;
78931;SDS011;68331;53.362;55.932;2023-07-08T14:06:31;7.75;;;6.18;;
78931;SDS011;68331;53.362;55.932;2023-07-08T14:11:39;8.23;;;6.68;;
78931;SDS011;68331;53.362;55.932;2023-07-08T14:14:07;8.10;;;5.90;;
78931;SDS011;68331;53.362;55.932;2023-07-08T14:16:36;8.07;;;6.47;;
78931;SDS011;68331;53.362;55.932;2023-07-08T14:19:05;8.60;;;6.15;;
78931;SDS011;68331;53.362;55.932;2023-07-08T14:21:37;9.95;;;6.38;;
78931;SDS011;68331;53.362;55.932;2023-07-08T14:24:08;9.00;;;6.20;;
78931;SDS011;68331;53.362;55.932;2023-07-08T14:26:42;11.57;;;6.82;;
78931;SDS011;68331;53.362;55.932;2023-07-08T14:29:13;7.88;;;5.32;;
78931;SDS011;68331;53.362;55.932;2023-07-08T14:31:39;14.07;;;6.55;;
78931;SDS011;68331;53.362;55.932;2023-07-08T14:34:07;9.65;;;6.35;;
78931;SDS011;68331;53.362;55.932;2023-07-08T14:36:37;6.65;;;5.97;;
78931;SDS011;68331;53.362;55.932;2023-07-08T14:39:13;9.15;;;6.43;;
78931;SDS011;68331;53.362;55.932;2023-07-08T14:41:42;7.60;;;5.80;;
78931;SDS011;68331;53.362;55.932;2023-07-08T14:44:24;8.95;;;6.85;;
78931;SDS011;68331;53.362;55.932;2023-07-08T14:47:00;9.45;;;6.55;;
78931;SDS011;68331;53.362;55.932;2023-07-08T14:49:27;6.88;;;6.18;;
78931;SDS011;68331;53.362;55.932;2023-07-08T14:51:54;9.27;;;5.68;;
78931;SDS011;68331;53.362;55.932;2023-07-08T14:54:21;7.15;;;6.03;;
78931;SDS011;68331;53.362;55.932;2023-07-08T14:59:15;8.75;;;6.30;;
78931;SDS011;68331;53.362;55.932;2023-07-08T15:01:45;8.68;;;6.25;;
78931;SDS011;68331;53.362;55.932;2023-07-08T15:06:39;9.15;;;6.80;;
78931;SDS011;68331;53.362;55.932;2023-07-08T15:09:07;12.20;;;8.82;;
78931;SDS011;68331;53.362;55.932;2023-07-08T15:11:33;14.38;;;9.00;;
78931;SDS011;68331;53.362;55.932;2023-07-08T15:14:01;14.52;;;10.05;;
78931;SDS011;68331;53.362;55.932;2023-07-08T15:16:27;17.33;;;10.82;;
78931;SDS011;68331;53.362;55.932;2023-07-08T15:18:54;15.43;;;10.85;;
78931;SDS011;68331;53.362;55.932;2023-07-08T15:21:20;13.27;;;9.65;;
78931;SDS011;68331;53.362;55.932;2023-07-08T15:26:12;10.48;;;8.02;;
78931;SDS011;68331;53.362;55.932;2023-07-08T15:28:41;11.55;;;8.07;;
78931;SDS011;68331;53.362;55.932;2023-07-08T15:31:14;9.70;;;8.07;;
78931;SDS011;68331;53.362;55.932;2023-07-08T15:33:43;16.30;;;10.38;;
78931;SDS011;68331;53.362;55.932;2023-07-08T15:38:39;14.27;;;10.20;;
78931;SDS011;68331;53.362;55.932;2023-07-08T15:43:53;19.73;;;11.45;;
78931;SDS011;68331;53.362;55.932;2023-07-08T15:46:21;19.83;;;11.43;;
78931;SDS011;68331;53.362;55.932;2023-07-08T15:48:48;19.35;;;11.43;;
78931;SDS011;68331;53.362;55.932;2023-07-08T15:51:17;18.52;;;11.90;;
78931;SDS011;68331;53.362;55.932;2023-07-08T15:53:44;21.58;;;11.52;;
78931;SDS011;68331;53.362;55.932;2023-07-08T15:56:14;22.65;;;11.18;;
78931;SDS011;68331;53.362;55.932;2023-07-08T16:01:16;20.13;;;11.90;;
78931;SDS011;68331;53.362;55.932;2023-07-08T16:03:47;21.33;;;11.60;;
78931;SDS011;68331;53.362;55.932;2023-07-08T16:06:14;18.55;;;11.68;;
78931;SDS011;68331;53.362;55.932;2023-07-08T16:08:40;22.15;;;12.75;;
78931;SDS011;68331;53.362;55.932;2023-07-08T16:11:17;23.05;;;12.75;;
78931;SDS011;68331;53.362;55.932;2023-07-08T16:13:49;27.90;;;13.93;;